sensor_id;sensor_type;location;lat;lon;timestamp;pressure;altitude;pressure_sealevel;temperature;humidity
55755;BME280;41674;52.290;-1.474;2024-03-23T00:52:31;100835.38;;;4.02;85.82
55755;BME280;41674;52.290;-1.474;2024-03-23T00:55:00;100828.14;;;4.00;84.22
55755;BME280;41674;52.290;-1.474;2024-03-23T00:57:30;100827.29;;;4.08;85.45
55755;BME280;41674;52.290;-1.474;2024-03-23T01:00:00;100827.54;;;4.06;85.29
55755;BME280;41674;52.290;-1.474;2024-03-23T01:02:29;100823.15;;;3.76;85.92
55755;BME280;41674;52.290;-1.474;2024-03-23T01:04:59;100821.33;;;3.86;85.65
55755;BME280;41674;52.290;-1.474;2024-03-23T01:07:29;100816.78;;;3.62;87.92
55755;BME280;41674;52.290;-1.474;2024-03-23T01:09:58;100813.64;;;3.07;89.06
55755;BME280;41674;52.290;-1.474;2024-03-23T01:12:28;100806.80;;;3.79;86.95
55755;BME280;41674;52.290;-1.474;2024-03-23T01:17:28;100797.59;;;3.93;85.34
55755;BME280;41674;52.290;-1.474;2024-03-23T01:19:57;100801.62;;;3.82;85.10
55755;BME280;41674;52.290;-1.474;2024-03-23T01:22:27;100797.74;;;4.11;84.53
55755;BME280;41674;52.290;-1.474;2024-03-23T01:24:57;100796.54;;;3.17;87.60
55755;BME280;41674;52.290;-1.474;2024-03-23T01:27:26;100803.41;;;3.77;85.52
55755;BME280;41674;52.290;-1.474;2024-03-23T01:29:56;100800.47;;;3.43;85.63
55755;BME280;41674;52.290;-1.474;2024-03-23T01:32:26;100796.26;;;3.78;86.02
55755;BME280;41674;52.290;-1.474;2024-03-23T01:34:55;100793.74;;;3.09;88.10
55755;BME280;41674;52.290;-1.474;2024-03-23T01:37:25;100794.28;;;3.15;89.62
55755;BME280;41674;52.290;-1.474;2024-03-23T01:39:55;100783.77;;;3.89;85.77
55755;BME280;41674;52.290;-1.474;2024-03-23T01:42:25;100783.38;;;3.75;86.22
55755;BME280;41674;52.290;-1.474;2024-03-23T01:44:54;100783.30;;;3.47;84.68
55755;BME280;41674;52.290;-1.474;2024-03-23T01:47:24;100786.26;;;2.91;87.89
55755;BME280;41674;52.290;-1.474;2024-03-23T01:49:54;100777.10;;;3.93;83.42
55755;BME280;41674;52.290;-1.474;2024-03-23T01:52:23;100778.12;;;3.53;86.13
55755;BME280;41674;52.290;-1.474;2024-03-23T01:57:23;100776.51;;;3.84;84.70
55755;BME280;41674;52.290;-1.474;2024-03-23T01:59:53;100774.64;;;3.90;84.21
55755;BME280;41674;52.290;-1.474;2024-03-23T02:02:22;100770.60;;;3.47;84.96
55755;BME280;41674;52.290;-1.474;2024-03-23T02:04:53;100764.82;;;3.09;88.97
55755;BME280;41674;52.290;-1.474;2024-03-23T02:07:22;100759.58;;;3.23;87.59
55755;BME280;41674;52.290;-1.474;2024-03-23T02:09:52;100762.52;;;3.29;87.18
55755;BME280;41674;52.290;-1.474;2024-03-23T02:12:21;100764.71;;;3.61;87.41
55755;BME280;41674;52.290;-1.474;2024-03-23T02:14:51;100764.19;;;2.67;89.17
55755;BME280;41674;52.290;-1.474;2024-03-23T02:17:20;100759.86;;;3.30;87.50
55755;BME280;41674;52.290;-1.474;2024-03-23T02:19:50;100761.34;;;2.67;89.76
55755;BME280;41674;52.290;-1.474;2024-03-23T02:22:20;100755.50;;;3.31;88.22
55755;BME280;41674;52.290;-1.474;2024-03-23T02:24:50;100754.05;;;3.13;87.16
55755;BME280;41674;52.290;-1.474;2024-03-23T02:27:19;100757.77;;;2.25;89.50
55755;BME280;41674;52.290;-1.474;2024-03-23T02:29:49;100756.09;;;2.64;88.09
55755;BME280;41674;52.290;-1.474;2024-03-23T02:32:18;100751.61;;;2.05;90.93
55755;BME280;41674;52.290;-1.474;2024-03-23T02:34:48;100744.11;;;2.73;88.69
55755;BME280;41674;52.290;-1.474;2024-03-23T02:37:18;100745.47;;;2.65;88.97
55755;BME280;41674;52.290;-1.474;2024-03-23T02:39:47;100750.04;;;2.90;89.43
55755;BME280;41674;52.290;-1.474;2024-03-23T02:42:17;100750.47;;;2.70;89.37
55755;BME280;41674;52.290;-1.474;2024-03-23T02:44:47;100749.40;;;3.31;86.91
55755;BME280;41674;52.290;-1.474;2024-03-23T02:47:17;100749.72;;;3.41;86.94
55755;BME280;41674;52.290;-1.474;2024-03-23T02:49:46;100753.86;;;2.27;91.91
55755;BME280;41674;52.290;-1.474;2024-03-23T02:52:16;100742.11;;;2.97;89.84
55755;BME280;41674;52.290;-1.474;2024-03-23T02:54:46;100737.96;;;3.12;88.63
55755;BME280;41674;52.290;-1.474;2024-03-23T02:57:16;100745.26;;;2.77;88.84
55755;BME280;41674;52.290;-1.474;2024-03-23T02:59:45;100737.52;;;3.23;87.37
55755;BME280;41674;52.290;-1.474;2024-03-23T03:02:16;100742.63;;;2.96;88.56
55755;BME280;41674;52.290;-1.474;2024-03-23T03:04:45;100735.46;;;3.05;88.06
55755;BME280;41674;52.290;-1.474;2024-03-23T03:07:14;100736.57;;;2.43;90.05
55755;BME280;41674;52.290;-1.474;2024-03-23T03:09:44;100734.20;;;1.94;93.17
55755;BME280;41674;52.290;-1.474;2024-03-23T03:12:14;100734.60;;;2.12;92.10
55755;BME280;41674;52.290;-1.474;2024-03-23T03:14:44;100726.77;;;2.14;94.08
55755;BME280;41674;52.290;-1.474;2024-03-23T03:17:13;100720.40;;;1.62;96.21
55755;BME280;41674;52.290;-1.474;2024-03-23T03:19:45;100719.24;;;1.87;94.99
55755;BME280;41674;52.290;-1.474;2024-03-23T03:22:13;100712.14;;;2.40;93.67
55755;BME280;41674;52.290;-1.474;2024-03-23T03:24:42;100710.94;;;2.55;93.33
55755;BME280;41674;52.290;-1.474;2024-03-23T03:27:12;100709.70;;;2.14;92.88
55755;BME280;41674;52.290;-1.474;2024-03-23T03:29:42;100712.32;;;2.27;94.73
55755;BME280;41674;52.290;-1.474;2024-03-23T03:32:12;100704.07;;;2.28;93.48
55755;BME280;41674;52.290;-1.474;2024-03-23T03:34:41;100705.46;;;1.92;97.16
55755;BME280;41674;52.290;-1.474;2024-03-23T03:37:11;100700.79;;;1.93;95.02
55755;BME280;41674;52.290;-1.474;2024-03-23T03:39:41;100703.84;;;1.67;95.70
55755;BME280;41674;52.290;-1.474;2024-03-23T03:42:10;100700.91;;;2.42;93.43
55755;BME280;41674;52.290;-1.474;2024-03-23T03:44:40;100699.91;;;2.08;94.24
55755;BME280;41674;52.290;-1.474;2024-03-23T03:47:10;100699.35;;;2.26;93.06
55755;BME280;41674;52.290;-1.474;2024-03-23T03:49:40;100702.74;;;2.52;93.44
55755;BME280;41674;52.290;-1.474;2024-03-23T03:52:09;100694.98;;;2.02;94.18
55755;BME280;41674;52.290;-1.474;2024-03-23T03:54:39;100694.60;;;1.95;94.22
55755;BME280;41674;52.290;-1.474;2024-03-23T03:57:08;100696.39;;;1.61;95.36
55755;BME280;41674;52.290;-1.474;2024-03-23T03:59:38;100691.26;;;1.78;95.46
55755;BME280;41674;52.290;-1.474;2024-03-23T04:02:08;100688.90;;;2.20;92.95
55755;BME280;41674;52.290;-1.474;2024-03-23T04:04:37;100675.74;;;2.61;90.31
55755;BME280;41674;52.290;-1.474;2024-03-23T04:07:07;100672.43;;;2.55;90.99
55755;BME280;41674;52.290;-1.474;2024-03-23T04:09:37;100675.99;;;1.76;93.43
55755;BME280;41674;52.290;-1.474;2024-03-23T04:12:08;100675.70;;;2.00;93.63
55755;BME280;41674;52.290;-1.474;2024-03-23T04:14:36;100681.08;;;2.49;91.73
55755;BME280;41674;52.290;-1.474;2024-03-23T04:17:06;100675.17;;;2.43;91.09
55755;BME280;41674;52.290;-1.474;2024-03-23T04:19:36;100675.60;;;1.84;94.69
55755;BME280;41674;52.290;-1.474;2024-03-23T04:22:05;100678.95;;;1.84;96.08
55755;BME280;41674;52.290;-1.474;2024-03-23T04:24:35;100679.87;;;1.30;98.86
55755;BME280;41674;52.290;-1.474;2024-03-23T04:27:05;100684.97;;;1.87;95.96
55755;BME280;41674;52.290;-1.474;2024-03-23T04:29:35;100685.82;;;1.92;95.49
55755;BME280;41674;52.290;-1.474;2024-03-23T04:32:06;100683.07;;;1.63;98.78
55755;BME280;41674;52.290;-1.474;2024-03-23T04:34:36;100678.03;;;1.32;100.00
55755;BME280;41674;52.290;-1.474;2024-03-23T04:37:04;100674.28;;;1.14;99.68
55755;BME280;41674;52.290;-1.474;2024-03-23T04:39:33;100675.26;;;1.64;99.27
55755;BME280;41674;52.290;-1.474;2024-03-23T04:42:03;100669.93;;;2.03;97.07
55755;BME280;41674;52.290;-1.474;2024-03-23T04:44:33;100671.92;;;1.80;97.73
55755;BME280;41674;52.290;-1.474;2024-03-23T04:47:03;100667.37;;;1.35;100.00
55755;BME280;41674;52.290;-1.474;2024-03-23T04:49:32;100673.28;;;1.82;98.65
55755;BME280;41674;52.290;-1.474;2024-03-23T04:52:02;100666.37;;;1.62;96.44
55755;BME280;41674;52.290;-1.474;2024-03-23T04:54:32;100670.45;;;1.58;96.30
55755;BME280;41674;52.290;-1.474;2024-03-23T04:57:01;100669.48;;;1.66;95.35
55755;BME280;41674;52.290;-1.474;2024-03-23T04:59:31;100670.12;;;2.04;94.06
55755;BME280;41674;52.290;-1.474;2024-03-23T05:02:00;100670.38;;;2.04;93.92
55755;BME280;41674;52.290;-1.474;2024-03-23T05:04:30;100664.91;;;2.05;93.99
55755;BME280;41674;52.290;-1.474;2024-03-23T05:07:00;100666.20;;;1.88;94.07
55755;BME280;41674;52.290;-1.474;2024-03-23T05:09:30;100668.13;;;2.06;92.98
55755;BME280;41674;52.290;-1.474;2024-03-23T05:12:00;100663.98;;;2.48;91.93
55755;BME280;41674;52.290;-1.474;2024-03-23T05:14:29;100662.97;;;2.42;89.91
55755;BME280;41674;52.290;-1.474;2024-03-23T05:16:59;100662.24;;;3.08;88.28
55755;BME280;41674;52.290;-1.474;2024-03-23T05:19:28;100660.15;;;3.15;87.44
55755;BME280;41674;52.290;-1.474;2024-03-23T05:21:58;100654.54;;;3.11;86.41
55755;BME280;41674;52.290;-1.474;2024-03-23T05:24:28;100653.68;;;2.52;88.72
55755;BME280;41674;52.290;-1.474;2024-03-23T05:26:57;100653.35;;;2.86;88.36
55755;BME280;41674;52.290;-1.474;2024-03-23T05:29:27;100654.46;;;2.48;88.50
55755;BME280;41674;52.290;-1.474;2024-03-23T05:31:57;100654.38;;;2.41;88.65
55755;BME280;41674;52.290;-1.474;2024-03-23T05:34:27;100649.46;;;2.28;90.16
55755;BME280;41674;52.290;-1.474;2024-03-23T05:39:26;100644.09;;;3.39;84.79
55755;BME280;41674;52.290;-1.474;2024-03-23T05:41:56;100635.36;;;2.71;87.73
55755;BME280;41674;52.290;-1.474;2024-03-23T05:44:25;100631.11;;;3.25;87.88
55755;BME280;41674;52.290;-1.474;2024-03-23T05:46:55;100631.83;;;3.65;84.56
55755;BME280;41674;52.290;-1.474;2024-03-23T05:49:25;100627.94;;;3.49;86.56
55755;BME280;41674;52.290;-1.474;2024-03-23T05:51:55;100622.25;;;2.64;88.38
55755;BME280;41674;52.290;-1.474;2024-03-23T05:54:24;100613.69;;;2.33;92.03
55755;BME280;41674;52.290;-1.474;2024-03-23T05:56:55;100610.16;;;2.31;92.94
55755;BME280;41674;52.290;-1.474;2024-03-23T05:59:24;100614.11;;;2.42;92.53
55755;BME280;41674;52.290;-1.474;2024-03-23T06:01:54;100616.17;;;2.41;92.20
55755;BME280;41674;52.290;-1.474;2024-03-23T06:04:23;100612.81;;;2.16;93.89
55755;BME280;41674;52.290;-1.474;2024-03-23T06:06:53;100612.01;;;2.47;93.27
55755;BME280;41674;52.290;-1.474;2024-03-23T06:09:23;100610.80;;;2.41;93.64
55755;BME280;41674;52.290;-1.474;2024-03-23T06:11:52;100616.73;;;1.95;95.97
55755;BME280;41674;52.290;-1.474;2024-03-23T06:14:22;100619.23;;;1.76;95.94
55755;BME280;41674;52.290;-1.474;2024-03-23T06:16:52;100618.49;;;1.69;96.59
55755;BME280;41674;52.290;-1.474;2024-03-23T06:19:21;100610.96;;;2.31;93.92
55755;BME280;41674;52.290;-1.474;2024-03-23T06:21:51;100617.12;;;1.72;94.35
55755;BME280;41674;52.290;-1.474;2024-03-23T06:24:22;100618.18;;;1.58;94.78
55755;BME280;41674;52.290;-1.474;2024-03-23T06:26:51;100608.05;;;2.06;94.59
55755;BME280;41674;52.290;-1.474;2024-03-23T06:29:20;100607.57;;;2.10;93.28
55755;BME280;41674;52.290;-1.474;2024-03-23T06:31:59;100604.97;;;2.16;93.66
55755;BME280;41674;52.290;-1.474;2024-03-23T06:34:20;100601.85;;;2.26;92.09
55755;BME280;41674;52.290;-1.474;2024-03-23T06:36:50;100597.88;;;2.00;94.13
55755;BME280;41674;52.290;-1.474;2024-03-23T06:39:19;100594.69;;;2.28;93.30
55755;BME280;41674;52.290;-1.474;2024-03-23T06:41:52;100595.44;;;2.15;93.52
55755;BME280;41674;52.290;-1.474;2024-03-23T06:44:19;100593.44;;;2.09;94.30
55755;BME280;41674;52.290;-1.474;2024-03-23T06:46:49;100590.63;;;1.58;97.98
55755;BME280;41674;52.290;-1.474;2024-03-23T06:49:18;100580.31;;;2.09;95.23
55755;BME280;41674;52.290;-1.474;2024-03-23T06:51:48;100578.71;;;1.81;95.65
55755;BME280;41674;52.290;-1.474;2024-03-23T06:54:20;100581.71;;;2.34;93.92
55755;BME280;41674;52.290;-1.474;2024-03-23T06:56:47;100595.33;;;2.39;93.54
55755;BME280;41674;52.290;-1.474;2024-03-23T06:59:17;100578.52;;;2.47;91.76
55755;BME280;41674;52.290;-1.474;2024-03-23T07:01:47;100579.92;;;2.23;93.02
55755;BME280;41674;52.290;-1.474;2024-03-23T07:04:16;100579.95;;;1.95;93.13
55755;BME280;41674;52.290;-1.474;2024-03-23T07:06:46;100576.24;;;1.92;94.17
55755;BME280;41674;52.290;-1.474;2024-03-23T07:09:15;100578.74;;;2.21;92.71
55755;BME280;41674;52.290;-1.474;2024-03-23T07:11:45;100569.00;;;2.38;92.34
55755;BME280;41674;52.290;-1.474;2024-03-23T07:14:15;100571.91;;;2.14;93.64
55755;BME280;41674;52.290;-1.474;2024-03-23T07:16:44;100558.47;;;2.66;92.55
55755;BME280;41674;52.290;-1.474;2024-03-23T07:19:14;100557.95;;;2.66;91.29
55755;BME280;41674;52.290;-1.474;2024-03-23T07:21:44;100554.76;;;2.27;91.65
55755;BME280;41674;52.290;-1.474;2024-03-23T07:24:14;100552.10;;;2.41;94.16
55755;BME280;41674;52.290;-1.474;2024-03-23T07:26:43;100554.18;;;2.37;93.11
55755;BME280;41674;52.290;-1.474;2024-03-23T07:29:13;100559.47;;;2.13;93.62
55755;BME280;41674;52.290;-1.474;2024-03-23T07:31:42;100563.39;;;2.68;93.46
55755;BME280;41674;52.290;-1.474;2024-03-23T07:34:12;100552.94;;;2.14;94.79
55755;BME280;41674;52.290;-1.474;2024-03-23T07:36:42;100544.23;;;2.74;93.32
55755;BME280;41674;52.290;-1.474;2024-03-23T07:39:12;100547.79;;;3.10;90.45
55755;BME280;41674;52.290;-1.474;2024-03-23T07:41:44;100550.03;;;2.80;92.87
55755;BME280;41674;52.290;-1.474;2024-03-23T07:44:11;100544.80;;;2.76;93.39
55755;BME280;41674;52.290;-1.474;2024-03-23T07:46:41;100538.90;;;2.41;93.33
55755;BME280;41674;52.290;-1.474;2024-03-23T07:49:10;100541.25;;;2.56;94.31
55755;BME280;41674;52.290;-1.474;2024-03-23T07:51:40;100541.15;;;2.59;93.98
55755;BME280;41674;52.290;-1.474;2024-03-23T07:54:10;100544.78;;;2.46;96.13
55755;BME280;41674;52.290;-1.474;2024-03-23T07:56:39;100540.68;;;2.17;96.89
55755;BME280;41674;52.290;-1.474;2024-03-23T07:59:09;100543.99;;;2.99;95.08
55755;BME280;41674;52.290;-1.474;2024-03-23T08:01:39;100551.09;;;2.59;95.70
55755;BME280;41674;52.290;-1.474;2024-03-23T08:04:08;100552.75;;;2.15;95.69
55755;BME280;41674;52.290;-1.474;2024-03-23T08:06:38;100546.07;;;2.04;97.17
55755;BME280;41674;52.290;-1.474;2024-03-23T08:09:08;100541.66;;;2.64;95.58
55755;BME280;41674;52.290;-1.474;2024-03-23T08:11:38;100542.01;;;2.61;95.03
55755;BME280;41674;52.290;-1.474;2024-03-23T08:14:07;100537.93;;;2.46;94.39
55755;BME280;41674;52.290;-1.474;2024-03-23T08:16:37;100531.08;;;2.84;94.70
55755;BME280;41674;52.290;-1.474;2024-03-23T08:19:07;100528.18;;;3.03;94.08
55755;BME280;41674;52.290;-1.474;2024-03-23T08:21:36;100527.73;;;3.09;93.55
55755;BME280;41674;52.290;-1.474;2024-03-23T08:24:06;100517.89;;;3.14;92.41
55755;BME280;41674;52.290;-1.474;2024-03-23T08:26:36;100517.14;;;3.05;92.81
55755;BME280;41674;52.290;-1.474;2024-03-23T08:29:05;100517.14;;;3.08;91.97
55755;BME280;41674;52.290;-1.474;2024-03-23T08:31:35;100516.74;;;3.83;90.07
55755;BME280;41674;52.290;-1.474;2024-03-23T08:34:05;100524.15;;;3.09;90.79
55755;BME280;41674;52.290;-1.474;2024-03-23T08:36:34;100507.27;;;3.46;90.70
55755;BME280;41674;52.290;-1.474;2024-03-23T08:39:04;100511.26;;;2.90;90.49
55755;BME280;41674;52.290;-1.474;2024-03-23T08:41:34;100510.61;;;3.13;91.95
55755;BME280;41674;52.290;-1.474;2024-03-23T08:44:03;100511.15;;;2.93;92.13
55755;BME280;41674;52.290;-1.474;2024-03-23T08:46:33;100507.90;;;3.11;93.44
55755;BME280;41674;52.290;-1.474;2024-03-23T08:49:03;100503.43;;;2.86;93.54
55755;BME280;41674;52.290;-1.474;2024-03-23T08:51:32;100504.44;;;3.18;92.36
55755;BME280;41674;52.290;-1.474;2024-03-23T08:54:03;100502.55;;;3.22;91.12
55755;BME280;41674;52.290;-1.474;2024-03-23T08:56:32;100508.55;;;3.77;89.68
55755;BME280;41674;52.290;-1.474;2024-03-23T08:59:01;100499.78;;;3.57;89.82
55755;BME280;41674;52.290;-1.474;2024-03-23T09:01:31;100495.88;;;3.88;90.12
55755;BME280;41674;52.290;-1.474;2024-03-23T09:04:01;100496.94;;;4.25;86.91
55755;BME280;41674;52.290;-1.474;2024-03-23T09:06:30;100491.95;;;4.44;83.94
55755;BME280;41674;52.290;-1.474;2024-03-23T09:09:00;100495.21;;;4.35;84.49
55755;BME280;41674;52.290;-1.474;2024-03-23T09:11:30;100499.51;;;3.96;87.09
55755;BME280;41674;52.290;-1.474;2024-03-23T09:13:59;100503.21;;;3.64;86.61
55755;BME280;41674;52.290;-1.474;2024-03-23T09:16:29;100511.42;;;3.97;86.70
55755;BME280;41674;52.290;-1.474;2024-03-23T09:18:59;100499.28;;;4.26;87.11
55755;BME280;41674;52.290;-1.474;2024-03-23T09:21:29;100498.42;;;4.44;85.24
55755;BME280;41674;52.290;-1.474;2024-03-23T09:23:58;100487.52;;;4.62;82.80
55755;BME280;41674;52.290;-1.474;2024-03-23T09:26:28;100496.98;;;4.50;86.13
55755;BME280;41674;52.290;-1.474;2024-03-23T09:28:58;100490.71;;;4.25;85.91
55755;BME280;41674;52.290;-1.474;2024-03-23T09:31:27;100486.04;;;4.39;85.21
55755;BME280;41674;52.290;-1.474;2024-03-23T09:33:57;100490.39;;;3.92;84.84
55755;BME280;41674;52.290;-1.474;2024-03-23T09:36:26;100477.21;;;4.47;83.66
55755;BME280;41674;52.290;-1.474;2024-03-23T09:38:56;100480.02;;;5.06;84.73
55755;BME280;41674;52.290;-1.474;2024-03-23T09:41:26;100478.89;;;4.61;83.68
55755;BME280;41674;52.290;-1.474;2024-03-23T09:43:56;100479.54;;;4.82;84.79
55755;BME280;41674;52.290;-1.474;2024-03-23T09:46:25;100492.47;;;4.56;85.93
55755;BME280;41674;52.290;-1.474;2024-03-23T09:51:25;100496.80;;;4.03;93.30
55755;BME280;41674;52.290;-1.474;2024-03-23T09:53:55;100487.59;;;3.84;94.19
55755;BME280;41674;52.290;-1.474;2024-03-23T09:56:24;100501.77;;;3.86;96.28
55755;BME280;41674;52.290;-1.474;2024-03-23T09:59:02;100488.82;;;3.50;99.08
55755;BME280;41674;52.290;-1.474;2024-03-23T10:01:23;100487.13;;;3.75;95.57
55755;BME280;41674;52.290;-1.474;2024-03-23T10:03:53;100488.74;;;4.24;94.84
55755;BME280;41674;52.290;-1.474;2024-03-23T10:06:22;100475.42;;;4.03;91.77
55755;BME280;41674;52.290;-1.474;2024-03-23T10:08:52;100475.09;;;4.26;92.03
55755;BME280;41674;52.290;-1.474;2024-03-23T10:11:22;100472.58;;;4.73;90.07
55755;BME280;41674;52.290;-1.474;2024-03-23T10:13:51;100464.02;;;4.42;87.82
55755;BME280;41674;52.290;-1.474;2024-03-23T10:16:23;100471.03;;;3.55;88.82
55755;BME280;41674;52.290;-1.474;2024-03-23T10:18:51;100469.38;;;3.65;90.39
55755;BME280;41674;52.290;-1.474;2024-03-23T10:21:20;100462.21;;;4.09;89.71
55755;BME280;41674;52.290;-1.474;2024-03-23T10:23:50;100462.40;;;4.08;90.29
55755;BME280;41674;52.290;-1.474;2024-03-23T10:26:20;100450.78;;;3.67;90.78
55755;BME280;41674;52.290;-1.474;2024-03-23T10:28:54;100447.52;;;4.47;88.48
55755;BME280;41674;52.290;-1.474;2024-03-23T10:31:21;100437.84;;;3.85;87.74
55755;BME280;41674;52.290;-1.474;2024-03-23T10:33:49;100441.08;;;3.92;88.62
55755;BME280;41674;52.290;-1.474;2024-03-23T10:36:20;100429.11;;;4.13;85.92
55755;BME280;41674;52.290;-1.474;2024-03-23T10:38:50;100430.86;;;4.36;87.38
55755;BME280;41674;52.290;-1.474;2024-03-23T10:41:18;100432.03;;;4.16;84.27
55755;BME280;41674;52.290;-1.474;2024-03-23T10:43:48;100436.88;;;4.19;85.11
55755;BME280;41674;52.290;-1.474;2024-03-23T10:46:17;100458.83;;;3.74;95.54
55755;BME280;41674;52.290;-1.474;2024-03-23T10:48:47;100466.03;;;3.15;100.00
55755;BME280;41674;52.290;-1.474;2024-03-23T10:51:16;100458.68;;;2.60;100.00
55755;BME280;41674;52.290;-1.474;2024-03-23T10:53:46;100449.55;;;2.88;100.00
55755;BME280;41674;52.290;-1.474;2024-03-23T10:56:16;100441.00;;;3.08;100.00
55755;BME280;41674;52.290;-1.474;2024-03-23T10:58:48;100444.69;;;2.96;100.00
55755;BME280;41674;52.290;-1.474;2024-03-23T11:01:15;100448.25;;;3.63;100.00
55755;BME280;41674;52.290;-1.474;2024-03-23T11:03:45;100437.45;;;4.45;98.56
55755;BME280;41674;52.290;-1.474;2024-03-23T11:08:44;100441.61;;;4.80;92.91
55755;BME280;41674;52.290;-1.474;2024-03-23T11:11:17;100435.88;;;5.06;91.87
55755;BME280;41674;52.290;-1.474;2024-03-23T11:13:44;100421.99;;;5.45;89.90
55755;BME280;41674;52.290;-1.474;2024-03-23T11:16:14;100419.13;;;5.10;89.19
55755;BME280;41674;52.290;-1.474;2024-03-23T11:18:43;100414.63;;;5.23;89.60
55755;BME280;41674;52.290;-1.474;2024-03-23T11:23:42;100414.97;;;4.83;91.61
55755;BME280;41674;52.290;-1.474;2024-03-23T11:26:12;100405.13;;;4.79;91.90
55755;BME280;41674;52.290;-1.474;2024-03-23T11:28:41;100398.41;;;4.25;92.14
55755;BME280;41674;52.290;-1.474;2024-03-23T11:31:11;100402.14;;;4.80;88.18
55755;BME280;41674;52.290;-1.474;2024-03-23T11:33:40;100402.28;;;5.09;87.73
55755;BME280;41674;52.290;-1.474;2024-03-23T11:36:10;100401.40;;;5.06;88.74
55755;BME280;41674;52.290;-1.474;2024-03-23T11:38:40;100397.48;;;5.24;86.96
55755;BME280;41674;52.290;-1.474;2024-03-23T11:41:10;100412.80;;;4.94;90.01
55755;BME280;41674;52.290;-1.474;2024-03-23T11:43:39;100404.11;;;5.04;85.61
55755;BME280;41674;52.290;-1.474;2024-03-23T11:46:09;100414.63;;;4.81;85.64
55755;BME280;41674;52.290;-1.474;2024-03-23T11:48:38;100411.94;;;4.78;89.94
55755;BME280;41674;52.290;-1.474;2024-03-23T11:51:08;100410.10;;;4.96;86.20
55755;BME280;41674;52.290;-1.474;2024-03-23T11:53:37;100409.67;;;5.01;83.28
55755;BME280;41674;52.290;-1.474;2024-03-23T11:56:07;100406.61;;;4.87;84.48
55755;BME280;41674;52.290;-1.474;2024-03-23T11:58:37;100402.22;;;5.47;83.68
55755;BME280;41674;52.290;-1.474;2024-03-23T12:01:10;100403.38;;;5.88;82.25
55755;BME280;41674;52.290;-1.474;2024-03-23T12:03:36;100405.20;;;5.37;84.43
55755;BME280;41674;52.290;-1.474;2024-03-23T12:06:06;100400.04;;;5.41;86.13
55755;BME280;41674;52.290;-1.474;2024-03-23T12:08:36;100405.87;;;5.06;86.43
55755;BME280;41674;52.290;-1.474;2024-03-23T12:11:06;100411.99;;;4.78;87.87
55755;BME280;41674;52.290;-1.474;2024-03-23T12:13:35;100410.89;;;5.00;87.34
55755;BME280;41674;52.290;-1.474;2024-03-23T12:16:09;100403.60;;;5.10;86.32
55755;BME280;41674;52.290;-1.474;2024-03-23T12:18:34;100389.47;;;6.11;85.71
55755;BME280;41674;52.290;-1.474;2024-03-23T12:21:04;100389.43;;;5.30;85.44
55755;BME280;41674;52.290;-1.474;2024-03-23T12:23:34;100387.23;;;6.21;82.16
55755;BME280;41674;52.290;-1.474;2024-03-23T12:26:03;100367.39;;;6.11;83.32
55755;BME280;41674;52.290;-1.474;2024-03-23T12:28:33;100362.40;;;6.20;82.64
55755;BME280;41674;52.290;-1.474;2024-03-23T12:33:32;100345.41;;;6.83;77.59
55755;BME280;41674;52.290;-1.474;2024-03-23T12:38:31;100337.56;;;7.18;73.44
55755;BME280;41674;52.290;-1.474;2024-03-23T12:41:00;100333.40;;;7.65;74.53
55755;BME280;41674;52.290;-1.474;2024-03-23T12:43:30;100330.44;;;7.13;68.96
55755;BME280;41674;52.290;-1.474;2024-03-23T12:48:29;100331.83;;;6.93;69.59
55755;BME280;41674;52.290;-1.474;2024-03-23T12:50:59;100339.28;;;7.95;69.74
55755;BME280;41674;52.290;-1.474;2024-03-23T12:53:29;100339.49;;;7.57;68.61
55755;BME280;41674;52.290;-1.474;2024-03-23T12:55:58;100337.21;;;7.62;67.54
55755;BME280;41674;52.290;-1.474;2024-03-23T12:58:28;100338.18;;;7.67;65.25
55755;BME280;41674;52.290;-1.474;2024-03-23T13:00:58;100332.31;;;7.38;68.42
55755;BME280;41674;52.290;-1.474;2024-03-23T13:03:27;100346.12;;;6.32;72.76
55755;BME280;41674;52.290;-1.474;2024-03-23T13:05:58;100348.02;;;5.85;77.40
55755;BME280;41674;52.290;-1.474;2024-03-23T13:08:26;100363.69;;;5.40;82.59
55755;BME280;41674;52.290;-1.474;2024-03-23T13:10:57;100381.21;;;4.40;94.10
55755;BME280;41674;52.290;-1.474;2024-03-23T13:13:26;100394.15;;;4.22;100.00
55755;BME280;41674;52.290;-1.474;2024-03-23T13:15:56;100369.94;;;3.16;100.00
55755;BME280;41674;52.290;-1.474;2024-03-23T13:18:25;100360.88;;;3.15;99.63
55755;BME280;41674;52.290;-1.474;2024-03-23T13:20:55;100361.56;;;3.88;96.97
55755;BME280;41674;52.290;-1.474;2024-03-23T13:23:24;100363.82;;;3.29;99.82
55755;BME280;41674;52.290;-1.474;2024-03-23T13:25:55;100369.92;;;3.92;99.15
55755;BME280;41674;52.290;-1.474;2024-03-23T13:28:24;100375.29;;;3.85;98.52
55755;BME280;41674;52.290;-1.474;2024-03-23T13:30:54;100379.44;;;3.57;96.86
55755;BME280;41674;52.290;-1.474;2024-03-23T13:33:23;100386.62;;;4.40;97.53
55755;BME280;41674;52.290;-1.474;2024-03-23T13:35:54;100387.68;;;4.40;97.31
55755;BME280;41674;52.290;-1.474;2024-03-23T13:38:22;100397.66;;;3.50;99.15
55755;BME280;41674;52.290;-1.474;2024-03-23T13:40:52;100390.68;;;3.20;100.00
55755;BME280;41674;52.290;-1.474;2024-03-23T13:43:22;100396.11;;;2.32;100.00
55755;BME280;41674;52.290;-1.474;2024-03-23T13:45:53;100379.05;;;2.45;100.00
55755;BME280;41674;52.290;-1.474;2024-03-23T13:48:22;100363.74;;;2.66;94.16
55755;BME280;41674;52.290;-1.474;2024-03-23T13:50:57;100357.41;;;2.47;94.16
55755;BME280;41674;52.290;-1.474;2024-03-23T13:53:20;100355.45;;;3.66;93.71
55755;BME280;41674;52.290;-1.474;2024-03-23T13:55:50;100354.95;;;3.84;92.92
55755;BME280;41674;52.290;-1.474;2024-03-23T13:58:19;100356.10;;;4.15;91.63
55755;BME280;41674;52.290;-1.474;2024-03-23T14:00:49;100346.27;;;4.82;87.78
55755;BME280;41674;52.290;-1.474;2024-03-23T14:03:18;100350.25;;;4.52;88.92
55755;BME280;41674;52.290;-1.474;2024-03-23T14:05:48;100335.08;;;4.92;86.84
55755;BME280;41674;52.290;-1.474;2024-03-23T14:08:17;100336.02;;;5.55;87.23
55755;BME280;41674;52.290;-1.474;2024-03-23T14:10:47;100333.31;;;5.63;83.93
55755;BME280;41674;52.290;-1.474;2024-03-23T14:13:17;100332.02;;;6.42;75.27
55755;BME280;41674;52.290;-1.474;2024-03-23T14:15:46;100319.94;;;7.68;75.58